Terminal Aerodrome Forecast
Issued by NWS

Home | Current Version | Previous Version | Text Only | Print | Product List | Glossary On
Versions: 1 2 3 4 5 6 7 8 9 10 11 12 13
000
FTUS46 KMTR 030500
TAFSJC
TAF
KSJC 030524Z 0306/0406 31005KT P6SM SKC
     FM030900 14005KT P6SM BKN015
     FM031700 15004KT P6SM SCT015
     FM031900 30012KT P6SM SKC
     FM040400 30007KT P6SM SKC=

USA.gov is the U.S. government's official web portal to all federal, state and local government web resources and services.